Time;durP1;ratioP1;P1;durP2;ratioP2;P2;SDS_P1;SDS_P2;PMS_P1;PMS_P2;Temp;Humidity;BMP_temperature;BMP_pressure;BME280_temperature;BME280_humidity;BME280_pressure;Samples;Min_cycle;Max_cycle;Signal;HPM_P1;HPM_P2
2023/06/28 00:00:02;;;;;;;;;;;;;;;24.98;75.24;99152.84;328295;30;1502;-79
2023/06/28 00:00:12;;;;;;;;;;;;;;;25.00;75.24;99156.19;323516;30;1287;-81
2023/06/28 00:00:24;;;;;;;;;;;;;;;25.00;75.27;99161.56;321619;30;1479;-80
2023/06/28 00:00:34;;;;;;;;;;;;;;;25.00;75.53;99156.19;322518;30;844;-80
2023/06/28 00:00:44;;;;;;;;;;;;;;;25.00;75.27;99158.88;323566;30;814;-80
2023/06/28 00:00:55;;;;;;;;;;;;;;;24.99;75.29;99149.16;323324;30;1200;-80
2023/06/28 00:01:05;;;;;;;;;;;;;;;24.99;75.29;99154.53;324799;30;1562;-80
2023/06/28 00:01:15;;;;;;;;;;;;;;;24.98;75.33;99151.00;325977;30;868;-79
2023/06/28 00:01:26;;;;;;;;;;;;;;;24.98;75.28;99158.19;326306;30;2420;-79
2023/06/28 00:01:36;;;;;;;;;;;;;;;24.98;75.11;99152.84;324185;30;2140;-80
2023/06/28 00:01:47;;;;;;;;;;;;;;;24.97;75.07;99154.69;320557;30;2392;-79
2023/06/28 00:01:57;;;;;;;;;;;;;;;24.98;75.09;99158.19;319950;30;1313;-79
2023/06/28 00:02:10;;;;;;;;;;;;;;;24.97;75.51;99162.72;321347;30;2476;-79
2023/06/28 00:02:20;;;;;;;;;;;;;;;24.98;75.25;99158.19;322305;30;2450;-79
2023/06/28 00:02:35;;;;;;;;;;;;;;;24.99;75.30;99149.16;322350;30;1216;-79
2023/06/28 00:02:45;;;;;;;;;;;;;;;24.99;74.96;99155.34;318819;31;1314;-79
2023/06/28 00:02:56;;;;;;;;;;;;;;;24.99;75.24;99159.88;319673;30;953;-79
2023/06/28 00:03:10;;;;;;;;;;;;;;;24.99;75.13;99159.88;319266;30;1505;-80
2023/06/28 00:03:21;;;;;;;;;;;;;;;25.00;75.38;99161.56;319668;30;2087;-79
2023/06/28 00:03:31;;;;;;;;;;;;;;;24.99;75.21;99155.34;321097;30;1231;-79
2023/06/28 00:03:41;;;;;;;;;;;;;;;25.00;74.80;99156.19;319314;30;2641;-80
2023/06/28 00:03:51;;;;;;;;;;;;;;;24.99;75.06;99154.53;317573;31;2817;-80
2023/06/28 00:04:02;;;;;;;;;;;;;;;24.99;75.25;99152.69;317140;30;3443;-79
2023/06/28 00:04:12;;;;;;;;;;;;;;;25.00;75.13;99157.03;315353;31;1294;-79
2023/06/28 00:04:22;;;;;;;;;;;;;;;24.99;75.15;99150.00;312248;31;2971;-79
2023/06/28 00:04:33;;;;;;;;;;;;;;;25.00;75.38;99156.19;311612;31;3095;-79
2023/06/28 00:04:43;;;;;;;;;;;;;;;24.98;75.23;99153.69;310913;31;1296;-80
2023/06/28 00:04:54;;;;;;;;;;;;;;;24.98;75.21;99158.19;310626;31;2340;-79
2023/06/28 00:05:07;;;;;;;;;;;;;;;24.99;75.29;99154.53;307683;31;2765;-79
2023/06/28 00:05:17;;;;;;;;;;;;;;;24.99;75.11;99154.53;304298;32;4651;-79
2023/06/28 00:05:27;;;;;;;;;;;;;;;24.99;75.09;99152.69;301224;32;1288;-80
2023/06/28 00:05:38;;;;;;;;;;;;;;;24.99;75.03;99151.84;301216;32;3350;-80
2023/06/28 00:05:48;;;;;;;;;;;;;;;24.97;75.19;99156.53;302871;32;3872;-79
2023/06/28 00:05:58;;;;;;;;;;;;;;;24.96;74.94;99154.84;304393;32;1327;-79
2023/06/28 00:06:08;;;;;;;;;;;;;;;24.95;74.81;99155.81;300440;32;5235;-79
2023/06/28 00:06:21;;;;;;;;;;;;;;;24.93;74.66;99158.66;299409;32;4883;-79
2023/06/28 00:06:32;;;;;;;;;;;;;;;24.92;74.60;99158.81;301257;32;1273;-79
2023/06/28 00:06:42;;;;;;;;;;;;;;;24.86;74.28;99155.81;297203;33;834;-79
2023/06/28 00:06:52;;;;;;;;;;;;;;;24.85;74.26;99154.13;295805;33;4202;-79
2023/06/28 00:07:02;;;;;;;;;;;;;;;24.85;74.30;99154.13;295609;33;3289;-79
2023/06/28 00:07:13;;;;;;;;;;;;;;;24.85;74.20;99148.78;295255;33;1242;-79
2023/06/28 00:07:23;;;;;;;;;;;;;;;24.84;74.24;99152.44;293423;33;3323;-79
2023/06/28 00:07:33;;;;;;;;;;;;;;;24.83;74.06;99156.13;291600;33;3534;-79
2023/06/28 00:07:44;;;;;;;;;;;;;;;24.83;74.01;99155.28;291303;34;1255;-80
2023/06/28 00:07:54;;;;;;;;;;;;;;;24.84;73.83;99152.44;291751;33;5112;-79
2023/06/28 00:08:04;;;;;;;;;;;;;;;24.85;73.86;99153.28;290785;33;7066;-79
2023/06/28 00:08:14;;;;;;;;;;;;;;;24.85;73.78;99156.81;291149;34;1258;-80
2023/06/28 00:08:25;;;;;;;;;;;;;;;24.85;73.63;99150.63;288768;33;6593;-80
2023/06/28 00:08:36;;;;;;;;;;;;;;;24.86;73.69;99146.94;288299;34;7614;-79
2023/06/28 00:08:47;;;;;;;;;;;;;;;24.86;73.83;99150.44;287528;34;1479;-79
2023/06/28 00:09:00;;;;;;;;;;;;;;;24.86;73.44;99161.16;283516;34;6072;-79
2023/06/28 00:09:10;;;;;;;;;;;;;;;24.86;73.09;99150.44;282465;34;5656;-79
2023/06/28 00:09:20;;;;;;;;;;;;;;;24.85;72.99;99159.47;279610;35;4651;-79
2023/06/28 00:09:31;;;;;;;;;;;;;;;24.85;73.01;99153.28;278391;35;1380;-79
2023/06/28 00:09:41;;;;;;;;;;;;;;;24.84;72.68;99152.44;278140;35;4843;-80
2023/06/28 00:09:52;;;;;;;;;;;;;;;24.83;72.28;99156.13;276529;35;6531;-80
2023/06/28 00:10:03;;;;;;;;;;;;;;;24.84;72.22;99156.97;273829;35;7805;-79
2023/06/28 00:10:13;;;;;;;;;;;;;;;24.82;71.78;99153.63;279176;35;1325;-80
2023/06/28 00:10:23;;;;;;;;;;;;;;;24.83;71.85;99152.63;274384;35;8890;-79
2023/06/28 00:10:33;;;;;;;;;;;;;;;24.82;71.55;99148.25;272103;35;10436;-79
2023/06/28 00:10:44;;;;;;;;;;;;;;;24.81;71.72;99152.78;274980;36;1438;-79
2023/06/28 00:12:55;;;;;;;;;;;;;;;24.80;71.22;99155.63;2504318;27;20349;-80
2023/06/28 00:13:05;;;;;;;;;;;;;;;24.79;71.24;99149.44;354796;27;1388;-80
2023/06/28 00:13:16;;;;;;;;;;;;;;;24.80;70.98;99151.09;351853;28;1111;-80
2023/06/28 00:13:27;;;;;;;;;;;;;;;24.80;71.04;99150.25;347999;28;1373;-79
2023/06/28 00:13:37;;;;;;;;;;;;;;;24.80;71.30;99150.25;347673;28;1323;-79
2023/06/28 00:13:49;;;;;;;;;;;;;;;24.81;71.05;99146.59;349176;28;1235;-79
2023/06/28 00:13:59;;;;;;;;;;;;;;;24.78;71.23;99150.44;350641;28;817;-79
2023/06/28 00:14:09;;;;;;;;;;;;;;;24.78;70.91;99147.75;350587;28;1353;-79
2023/06/28 00:14:20;;;;;;;;;;;;;;;24.78;71.14;99150.44;348606;28;2815;-79
2023/06/28 00:14:30;;;;;;;;;;;;;;;24.79;70.90;99149.44;347216;28;2949;-79
2023/06/28 00:14:40;;;;;;;;;;;;;;;24.78;70.81;99150.44;350367;28;1108;-79
2023/06/28 00:14:50;;;;;;;;;;;;;;;24.77;70.59;99151.44;351569;28;1226;-79
2023/06/28 00:15:01;;;;;;;;;;;;;;;24.79;70.52;99152.09;349375;28;1426;-79
2023/06/28 00:15:11;;;;;;;;;;;;;;;24.78;70.62;99152.28;351093;28;1323;-79
2023/06/28 00:15:22;;;;;;;;;;;;;;;24.78;70.32;99150.44;348169;28;1184;-79
2023/06/28 00:15:32;;;;;;;;;;;;;;;24.79;70.34;99148.59;349189;28;1345;-79
2023/06/28 00:15:42;;;;;;;;;;;;;;;24.78;70.33;99158.47;349097;28;1353;-79
2023/06/28 00:15:52;;;;;;;;;;;;;;;24.77;70.64;99151.44;347693;28;1314;-79
2023/06/28 00:16:03;;;;;;;;;;;;;;;24.78;70.34;99141.56;346606;28;1250;-79
2023/06/28 00:16:14;;;;;;;;;;;;;;;24.79;70.33;99153.94;347598;28;1319;-79
2023/06/28 00:16:25;;;;;;;;;;;;;;;24.80;70.42;99153.78;349126;28;872;-79
2023/06/28 00:16:35;;;;;;;;;;;;;;;24.81;70.06;99149.25;348922;28;1591;-79
2023/06/28 00:16:46;;;;;;;;;;;;;;;24.80;70.45;99150.25;347026;28;1142;-79
2023/06/28 00:16:56;;;;;;;;;;;;;;;24.80;70.58;99145.75;346423;28;810;-79
2023/06/28 00:17:06;;;;;;;;;;;;;;;24.81;70.64;99152.78;346902;28;911;-79
2023/06/28 00:17:16;;;;;;;;;;;;;;;24.79;70.48;99144.06;347878;28;1193;-79
2023/06/28 00:17:30;;;;;;;;;;;;;;;24.80;70.60;99156.47;349189;28;746;-79
2023/06/28 00:17:40;;;;;;;;;;;;;;;24.80;70.44;99151.09;345023;28;1305;-79
2023/06/28 00:17:50;;;;;;;;;;;;;;;24.80;70.39;99150.25;345014;28;824;-79
2023/06/28 00:18:03;;;;;;;;;;;;;;;24.79;70.39;99149.44;344835;28;926;-79
2023/06/28 00:18:14;;;;;;;;;;;;;;;24.80;70.62;99150.25;343696;28;893;-79
2023/06/28 00:18:26;;;;;;;;;;;;;;;24.79;70.49;99146.75;345050;28;889;-79
2023/06/28 00:18:38;;;;;;;;;;;;;;;24.79;70.79;99148.59;346156;28;885;-79
2023/06/28 00:18:48;;;;;;;;;;;;;;;24.80;70.52;99155.63;346057;28;1247;-80
2023/06/28 00:19:00;;;;;;;;;;;;;;;24.76;69.99;99144.41;346204;28;1025;-80
2023/06/28 00:19:10;;;;;;;;;;;;;;;24.76;69.64;99147.09;343768;28;770;-80
2023/06/28 00:19:26;;;;;;;;;;;;;;;24.76;69.73;99147.09;345650;28;1055;-80
2023/06/28 00:19:36;;;;;;;;;;;;;;;24.75;69.57;99152.59;346167;28;1030;-80
2023/06/28 00:19:49;;;;;;;;;;;;;;;24.74;69.34;99146.41;345024;28;942;-80
2023/06/28 00:20:00;;;;;;;;;;;;;;;24.73;69.25;99149.25;349057;28;1242;-80
2023/06/28 00:20:11;;;;;;;;;;;;;;;24.72;69.40;99148.41;348305;28;1076;-79
2023/06/28 00:20:21;;;;;;;;;;;;;;;24.72;69.24;99148.41;347669;28;1338;-79
2023/06/28 00:20:32;;;;;;;;;;;;;;;24.71;69.16;99148.56;346478;28;1188;-79
2023/06/28 00:20:42;;;;;;;;;;;;;;;24.69;68.68;99148.75;347852;28;1468;-79
2023/06/28 00:20:52;;;;;;;;;;;;;;;24.69;68.42;99143.41;347706;28;1319;-79
2023/06/28 00:21:02;;;;;;;;;;;;;;;24.68;68.48;99144.41;347280;28;1404;-79
2023/06/28 00:21:16;;;;;;;;;;;;;;;24.68;68.16;99155.13;346373;28;1217;-79
2023/06/28 00:21:26;;;;;;;;;;;;;;;24.69;68.10;99148.75;346368;28;1366;-79
2023/06/28 00:21:36;;;;;;;;;;;;;;;24.70;68.03;99150.41;344656;28;1490;-79
2023/06/28 00:21:49;;;;;;;;;;;;;;;24.70;67.90;99150.41;345365;28;1376;-79
2023/06/28 00:21:59;;;;;;;;;;;;;;;24.70;67.99;99147.72;343593;28;1729;-79
2023/06/28 00:22:11;;;;;;;;;;;;;;;24.71;67.92;99146.72;340911;29;1496;-79
2023/06/28 00:22:29;;;;;;;;;;;;;;;24.71;67.98;99149.41;341107;29;926;-79
2023/06/28 00:22:39;;;;;;;;;;;;;;;24.71;67.98;99152.09;339657;29;1354;-79
2023/06/28 00:22:50;;;;;;;;;;;;;;;24.70;67.97;99150.41;341703;28;1335;-79
2023/06/28 00:23:00;;;;;;;;;;;;;;;24.72;67.96;99143.06;341026;28;2044;-80
2023/06/28 00:23:11;;;;;;;;;;;;;;;24.71;68.20;99146.72;342385;28;778;-79
2023/06/28 00:23:21;;;;;;;;;;;;;;;24.71;67.98;99149.41;340548;28;1813;-79
2023/06/28 00:23:31;;;;;;;;;;;;;;;24.71;67.74;99146.72;339089;29;2747;-79
2023/06/28 00:23:42;;;;;;;;;;;;;;;24.71;67.62;99149.41;334832;29;3066;-79
2023/06/28 00:24:00;;;;;;;;;;;;;;;24.71;67.62;99140.53;331997;29;913;-79
2023/06/28 00:24:10;;;;;;;;;;;;;;;24.71;67.73;99145.91;326900;30;2922;-79
2023/06/28 00:24:20;;;;;;;;;;;;;;;24.70;67.45;99153.09;325817;30;1369;-79
2023/06/28 00:24:30;;;;;;;;;;;;;;;24.70;67.49;99145.06;329386;29;827;-79
2023/06/28 00:24:41;;;;;;;;;;;;;;;24.70;67.34;99153.09;328327;30;1253;-79
2023/06/28 00:24:51;;;;;;;;;;;;;;;24.69;67.59;99148.75;330457;29;1810;-79
2023/06/28 00:25:04;;;;;;;;;;;;;;;24.68;67.09;99147.09;330289;29;2230;-79
2023/06/28 00:25:15;;;;;;;;;;;;;;;24.68;66.92;99140.91;330039;29;2482;-79
2023/06/28 00:25:25;;;;;;;;;;;;;;;24.67;67.14;99140.06;327119;30;816;-79
2023/06/28 00:25:36;;;;;;;;;;;;;;;24.67;67.11;99150.78;319961;30;4684;-79
2023/06/28 00:25:46;;;;;;;;;;;;;;;24.68;67.14;99146.25;320923;30;2435;-79
2023/06/28 00:25:56;;;;;;;;;;;;;;;24.67;67.00;99144.56;327118;30;1251;-79
2023/06/28 00:26:07;;;;;;;;;;;;;;;24.67;67.07;99142.75;328974;30;2599;-79
2023/06/28 00:26:17;;;;;;;;;;;;;;;24.66;66.97;99149.09;328601;30;1904;-79
2023/06/28 00:26:27;;;;;;;;;;;;;;;24.67;67.02;99139.22;328400;30;1026;-79
2023/06/28 00:26:37;;;;;;;;;;;;;;;24.67;66.88;99145.41;326368;30;1448;-79
2023/06/28 00:26:48;;;;;;;;;;;;;;;24.67;66.82;99134.72;324144;30;1805;-79
2023/06/28 00:26:58;;;;;;;;;;;;;;;24.67;66.55;99145.41;325755;30;1080;-79
2023/06/28 00:27:11;;;;;;;;;;;;;;;24.68;66.70;99147.09;320662;30;2437;-79
2023/06/28 00:27:21;;;;;;;;;;;;;;;24.68;66.49;99143.56;320206;30;3084;-79
2023/06/28 00:27:31;;;;;;;;;;;;;;;24.68;66.52;99141.75;320623;30;2929;-79
2023/06/28 00:27:41;;;;;;;;;;;;;;;24.67;66.63;99145.41;322367;30;808;-79
2023/06/28 00:27:51;;;;;;;;;;;;;;;24.68;66.81;99147.09;319276;30;3230;-79
2023/06/28 00:28:02;;;;;;;;;;;;;;;24.67;66.51;99145.41;318679;30;3376;-79
2023/06/28 00:28:14;;;;;;;;;;;;;;;24.67;66.57;99142.75;318765;31;1384;-79
2023/06/28 00:28:24;;;;;;;;;;;;;;;24.67;66.53;99145.41;316463;31;1315;-79
2023/06/28 00:28:34;;;;;;;;;;;;;;;24.66;66.30;99146.41;317410;31;2235;-79
2023/06/28 00:28:44;;;;;;;;;;;;;;;24.67;66.62;99142.75;317614;31;1929;-79
2023/06/28 00:28:55;;;;;;;;;;;;;;;24.67;66.64;99144.56;315276;31;1278;-79
2023/06/28 00:29:05;;;;;;;;;;;;;;;24.67;66.75;99150.78;315595;31;2620;-79
2023/06/28 00:29:15;;;;;;;;;;;;;;;24.67;66.69;99145.41;312880;31;3539;-79
2023/06/28 00:29:25;;;;;;;;;;;;;;;24.67;66.74;99149.94;310860;31;1376;-79
2023/06/28 00:29:35;;;;;;;;;;;;;;;24.66;66.73;99146.41;308830;31;4122;-79
2023/06/28 00:29:46;;;;;;;;;;;;;;;24.64;66.38;99145.75;308132;31;4094;-79
2023/06/28 00:29:56;;;;;;;;;;;;;;;24.64;66.48;99145.75;307643;32;1290;-79
2023/06/28 00:30:07;;;;;;;;;;;;;;;24.64;66.60;99140.38;303694;32;4614;-79
2023/06/28 00:30:17;;;;;;;;;;;;;;;24.65;66.45;99142.06;306759;31;4033;-79
2023/06/28 00:30:27;;;;;;;;;;;;;;;24.65;66.10;99146.59;311032;31;1680;-79
2023/06/28 00:30:38;;;;;;;;;;;;;;;24.64;65.47;99143.06;308112;31;4360;-79
2023/06/28 00:30:48;;;;;;;;;;;;;;;24.64;65.61;99147.59;309442;31;3239;-79
2023/06/28 00:30:58;;;;;;;;;;;;;;;24.62;65.77;99147.75;308340;32;2694;-79
2023/06/28 00:31:08;;;;;;;;;;;;;;;24.63;65.66;99146.75;303470;32;921;-79
2023/06/28 00:31:18;;;;;;;;;;;;;;;24.62;65.75;99142.38;303859;32;3999;-79
2023/06/28 00:31:31;;;;;;;;;;;;;;;24.62;65.50;99139.72;302160;32;4970;-79
2023/06/28 00:31:41;;;;;;;;;;;;;;;24.62;65.62;99145.06;303458;32;992;-79
2023/06/28 00:31:51;;;;;;;;;;;;;;;24.62;65.68;99147.75;303157;32;5346;-79
2023/06/28 00:32:01;;;;;;;;;;;;;;;24.62;65.92;99142.38;300253;32;5556;-79
2023/06/28 00:32:12;;;;;;;;;;;;;;;24.63;65.87;99148.59;299222;32;1238;-79
2023/06/28 00:32:23;;;;;;;;;;;;;;;24.62;65.85;99147.75;300697;32;6693;-79
2023/06/28 00:32:33;;;;;;;;;;;;;;;24.62;65.78;99149.59;299727;32;5683;-79
2023/06/28 00:32:43;;;;;;;;;;;;;;;24.62;65.66;99145.06;297969;32;6307;-79
2023/06/28 00:32:53;;;;;;;;;;;;;;;24.62;65.97;99147.75;299363;33;790;-79
2023/06/28 00:33:04;;;;;;;;;;;;;;;24.63;65.87;99149.41;296405;33;4657;-79
2023/06/28 00:33:19;;;;;;;;;;;;;;;24.65;65.87;99149.25;295898;33;4487;-79
2023/06/28 00:33:30;;;;;;;;;;;;;;;24.64;65.68;99148.41;296254;32;5870;-79
2023/06/28 00:33:41;;;;;;;;;;;;;;;24.64;65.58;99145.75;299116;33;1243;-79
2023/06/28 00:33:51;;;;;;;;;;;;;;;24.66;65.74;99150.94;296679;33;6509;-79
2023/06/28 00:34:01;;;;;;;;;;;;;;;24.65;65.60;99147.41;295338;33;8159;-79
2023/06/28 00:34:12;;;;;;;;;;;;;;;24.66;65.77;99145.56;296280;33;946;-79
2023/06/28 00:34:22;;;;;;;;;;;;;;;24.66;65.74;99146.41;293537;33;7862;-79
2023/06/28 00:34:32;;;;;;;;;;;;;;;24.64;65.46;99148.41;293350;33;9145;-79
2023/06/28 00:34:43;;;;;;;;;;;;;;;24.64;65.38;99145.75;294225;33;1261;-79
2023/06/28 00:36:23;;;;;;;;;;;;;;;24.64;65.31;99145.75;2496356;27;19937;-78
2023/06/28 00:36:33;;;;;;;;;;;;;;;24.63;65.46;99137.88;353263;28;1298;-82
2023/06/28 00:36:43;;;;;;;;;;;;;;;24.63;65.60;99146.75;350549;28;1328;-79
2023/06/28 00:36:53;;;;;;;;;;;;;;;24.63;65.15;99144.06;348979;28;1298;-78
2023/06/28 00:37:03;;;;;;;;;;;;;;;24.63;65.41;99144.06;350524;28;1258;-78
2023/06/28 00:37:14;;;;;;;;;;;;;;;24.62;65.43;99145.06;350535;28;1195;-79
2023/06/28 00:37:25;;;;;;;;;;;;;;;24.63;65.51;99146.75;349119;28;1316;-79
2023/06/28 00:37:35;;;;;;;;;;;;;;;24.63;65.50;99141.38;349209;28;801;-79
2023/06/28 00:37:45;;;;;;;;;;;;;;;24.64;65.29;99143.06;349071;28;1219;-80
2023/06/28 00:37:55;;;;;;;;;;;;;;;24.64;65.42;99140.38;347824;28;796;-79
2023/06/28 00:38:05;;;;;;;;;;;;;;;24.64;65.34;99147.59;346426;28;944;-79
2023/06/28 00:38:16;;;;;;;;;;;;;;;24.64;65.20;99143.06;347657;28;1220;-79
2023/06/28 00:38:26;;;;;;;;;;;;;;;24.63;65.10;99138.72;349155;28;1338;-79
2023/06/28 00:38:36;;;;;;;;;;;;;;;24.64;65.06;99144.91;349113;28;840;-79
2023/06/28 00:38:46;;;;;;;;;;;;;;;24.63;65.30;99144.06;350346;28;1302;-79
2023/06/28 00:38:57;;;;;;;;;;;;;;;24.64;65.18;99142.22;349133;28;1073;-79
2023/06/28 00:39:07;;;;;;;;;;;;;;;24.63;65.16;99144.06;347898;28;1325;-79
2023/06/28 00:39:17;;;;;;;;;;;;;;;24.62;65.25;99137.03;347682;28;1501;-79
2023/06/28 00:39:28;;;;;;;;;;;;;;;24.63;65.29;99145.91;347923;28;796;-79
2023/06/28 00:39:38;;;;;;;;;;;;;;;24.62;65.17;99142.38;349137;28;1276;-79
2023/06/28 00:39:49;;;;;;;;;;;;;;;24.62;65.15;99139.72;344904;28;1221;-79
2023/06/28 00:39:59;;;;;;;;;;;;;;;24.62;64.98;99147.75;347155;28;1376;-79
2023/06/28 00:40:10;;;;;;;;;;;;;;;24.62;64.78;99141.56;349046;28;1223;-79
2023/06/28 00:40:20;;;;;;;;;;;;;;;24.63;64.93;99143.22;353043;28;939;-79
2023/06/28 00:40:30;;;;;;;;;;;;;;;24.62;64.80;99142.38;353232;28;1307;-79
2023/06/28 00:40:40;;;;;;;;;;;;;;;24.62;65.07;99142.38;350441;28;1244;-79
2023/06/28 00:40:50;;;;;;;;;;;;;;;24.62;65.00;99142.38;349147;28;881;-79
2023/06/28 00:41:01;;;;;;;;;;;;;;;24.62;64.79;99142.38;348254;28;1194;-79
2023/06/28 00:41:11;;;;;;;;;;;;;;;24.64;65.08;99136.88;350499;28;1374;-79
2023/06/28 00:41:21;;;;;;;;;;;;;;;24.64;65.23;99134.19;349200;28;1432;-79
2023/06/28 00:41:31;;;;;;;;;;;;;;;24.63;65.15;99138.72;347017;28;1243;-78
2023/06/28 00:41:42;;;;;;;;;;;;;;;24.63;65.06;99132.53;349211;28;815;-78
2023/06/28 00:41:52;;;;;;;;;;;;;;;24.62;65.10;99137.03;349086;28;1440;-78
2023/06/28 00:42:02;;;;;;;;;;;;;;;24.61;65.01;99137.19;348439;28;789;-78
2023/06/28 00:42:12;;;;;;;;;;;;;;;24.60;65.37;99139.03;344806;28;1211;-80
2023/06/28 00:42:23;;;;;;;;;;;;;;;24.60;65.11;99139.03;346663;28;1085;-80
2023/06/28 00:42:33;;;;;;;;;;;;;;;24.61;65.15;99137.19;348147;28;2032;-79
2023/06/28 00:42:43;;;;;;;;;;;;;;;24.60;65.35;99133.69;348240;28;4440;-79
2023/06/28 00:42:54;;;;;;;;;;;;;;;24.60;65.22;99147.06;347635;28;1478;-78
2023/06/28 00:43:04;;;;;;;;;;;;;;;24.62;65.41;99142.38;347638;28;1315;-78
2023/06/28 00:43:14;;;;;;;;;;;;;;;24.61;65.26;99135.38;346229;28;3095;-78
2023/06/28 00:43:24;;;;;;;;;;;;;;;24.62;65.24;99137.03;346389;28;1220;-79
2023/06/28 00:43:34;;;;;;;;;;;;;;;24.62;65.16;99137.03;347933;28;911;-79
2023/06/28 00:43:45;;;;;;;;;;;;;;;24.61;65.35;99137.19;347473;28;1193;-79
2023/06/28 00:43:55;;;;;;;;;;;;;;;24.61;65.34;99134.53;347832;28;871;-79
2023/06/28 00:44:06;;;;;;;;;;;;;;;24.60;65.19;99139.03;346389;28;1200;-79
2023/06/28 00:44:16;;;;;;;;;;;;;;;24.60;65.31;99133.69;346749;28;1321;-79
2023/06/28 00:44:27;;;;;;;;;;;;;;;24.60;65.50;99140.88;346965;28;1607;-79
2023/06/28 00:44:37;;;;;;;;;;;;;;;24.60;65.26;99133.69;341029;29;1349;-79
2023/06/28 00:44:48;;;;;;;;;;;;;;;24.61;65.16;99134.53;340031;28;1341;-79
2023/06/28 00:44:59;;;;;;;;;;;;;;;24.61;65.55;99132.69;339904;28;1540;-79
2023/06/28 00:45:11;;;;;;;;;;;;;;;24.60;65.60;99133.69;341397;28;1544;-79
2023/06/28 00:45:21;;;;;;;;;;;;;;;24.60;65.17;99133.69;342082;28;1726;-79
2023/06/28 00:45:31;;;;;;;;;;;;;;;24.60;65.27;99133.69;342317;28;925;-79
2023/06/28 00:45:41;;;;;;;;;;;;;;;24.59;65.44;99137.38;339745;29;774;-79
2023/06/28 00:45:52;;;;;;;;;;;;;;;24.60;65.58;99138.19;337320;29;1237;-80
2023/06/28 00:46:02;;;;;;;;;;;;;;;24.59;65.29;99137.38;336957;29;905;-79
2023/06/28 00:46:12;;;;;;;;;;;;;;;24.59;65.44;99132.00;335303;29;1513;-79
2023/06/28 00:46:22;;;;;;;;;;;;;;;24.60;65.35;99132.84;335777;29;1191;-79
2023/06/28 00:46:34;;;;;;;;;;;;;;;24.59;65.48;99137.38;335516;29;1718;-79
2023/06/28 00:46:44;;;;;;;;;;;;;;;24.59;65.21;99132.00;335421;29;1810;-79
2023/06/28 00:46:54;;;;;;;;;;;;;;;24.59;65.16;99132.00;335901;29;950;-79
2023/06/28 00:47:04;;;;;;;;;;;;;;;24.57;65.22;99134.00;332759;29;2032;-79
2023/06/28 00:47:15;;;;;;;;;;;;;;;24.57;65.07;99134.00;331101;29;1949;-79
2023/06/28 00:47:26;;;;;;;;;;;;;;;24.57;65.14;99133.19;329638;30;816;-79
2023/06/28 00:47:36;;;;;;;;;;;;;;;24.57;65.31;99134.00;330446;29;1507;-79
2023/06/28 00:47:46;;;;;;;;;;;;;;;24.57;65.30;99127.81;329862;29;1305;-79
2023/06/28 00:47:57;;;;;;;;;;;;;;;24.57;65.14;99133.19;330720;29;1337;-79
2023/06/28 00:48:07;;;;;;;;;;;;;;;24.57;65.13;99139.38;330793;29;1202;-79
2023/06/28 00:48:17;;;;;;;;;;;;;;;24.57;65.16;99138.53;328949;29;1684;-79
2023/06/28 00:48:27;;;;;;;;;;;;;;;24.57;64.96;99135.84;326595;30;2086;-79
2023/06/28 00:48:37;;;;;;;;;;;;;;;24.56;65.30;99132.34;324771;30;781;-79
2023/06/28 00:48:48;;;;;;;;;;;;;;;24.56;65.34;99137.69;324488;30;2406;-79
2023/06/28 00:48:58;;;;;;;;;;;;;;;24.57;65.22;99134.00;322907;30;2456;-80
2023/06/28 00:49:08;;;;;;;;;;;;;;;24.57;64.93;99133.19;319793;30;1402;-79
2023/06/28 00:49:18;;;;;;;;;;;;;;;24.56;65.14;99137.69;323762;30;2638;-79
2023/06/28 00:49:30;;;;;;;;;;;;;;;24.57;65.14;99138.53;323660;30;2618;-79
2023/06/28 00:49:40;;;;;;;;;;;;;;;24.57;65.17;99127.81;323705;30;1283;-79
2023/06/28 00:49:53;;;;;;;;;;;;;;;24.57;64.99;99133.19;319849;30;1781;-79
2023/06/28 00:50:03;;;;;;;;;;;;;;;24.57;65.16;99130.50;321752;30;1297;-80
2023/06/28 00:50:14;;;;;;;;;;;;;;;24.56;65.03;99137.69;322333;30;1944;-78
2023/06/28 00:50:24;;;;;;;;;;;;;;;24.56;64.97;99134.19;324692;30;777;-78
2023/06/28 00:50:35;;;;;;;;;;;;;;;24.56;64.86;99131.50;323037;30;2827;-78
2023/06/28 00:50:45;;;;;;;;;;;;;;;24.55;64.96;99136.00;323189;30;2910;-78
2023/06/28 00:50:55;;;;;;;;;;;;;;;24.54;64.91;99129.81;322226;30;1263;-79
2023/06/28 00:51:05;;;;;;;;;;;;;;;24.55;64.91;99127.97;320921;30;3500;-80
2023/06/28 00:51:16;;;;;;;;;;;;;;;24.54;64.98;99135.19;323728;30;3379;-79
2023/06/28 00:51:26;;;;;;;;;;;;;;;24.54;65.07;99135.19;323653;30;821;-79
2023/06/28 00:51:37;;;;;;;;;;;;;;;24.54;64.93;99131.66;317289;30;3474;-79
2023/06/28 00:51:47;;;;;;;;;;;;;;;24.52;64.90;99131.00;318764;30;3215;-79
2023/06/28 00:51:57;;;;;;;;;;;;;;;24.52;64.91;99129.16;319503;30;4699;-79
2023/06/28 00:52:09;;;;;;;;;;;;;;;24.51;64.79;99134.66;319979;30;948;-80
2023/06/28 00:52:19;;;;;;;;;;;;;;;24.51;65.02;99129.31;317736;30;2383;-80
2023/06/28 00:52:29;;;;;;;;;;;;;;;24.51;64.96;99134.66;317060;30;2576;-80
2023/06/28 00:52:39;;;;;;;;;;;;;;;24.50;64.78;99127.63;320405;30;1223;-80
2023/06/28 00:52:50;;;;;;;;;;;;;;;24.51;64.96;99132.00;315825;30;3439;-79
2023/06/28 00:53:00;;;;;;;;;;;;;;;24.50;64.95;99133.00;314322;30;4019;-79
2023/06/28 00:53:12;;;;;;;;;;;;;;;24.50;64.96;99127.63;317687;31;822;-79
2023/06/28 00:53:23;;;;;;;;;;;;;;;24.49;64.94;99131.31;316440;31;1440;-79
2023/06/28 00:53:33;;;;;;;;;;;;;;;24.49;65.04;99129.47;313717;31;4697;-79
2023/06/28 00:53:43;;;;;;;;;;;;;;;24.45;65.09;99130.78;310671;31;4971;-79
2023/06/28 00:53:53;;;;;;;;;;;;;;;24.44;65.07;99128.28;309772;31;1222;-79
2023/06/28 00:54:04;;;;;;;;;;;;;;;24.45;65.38;99129.97;307580;31;4339;-79
2023/06/28 00:54:14;;;;;;;;;;;;;;;24.44;64.97;99133.63;304580;32;3006;-79
2023/06/28 00:54:24;;;;;;;;;;;;;;;24.44;65.41;99133.63;301261;32;2161;-78
2023/06/28 00:54:34;;;;;;;;;;;;;;;24.45;65.11;99127.28;300307;32;3507;-79
2023/06/28 00:54:45;;;;;;;;;;;;;;;24.45;65.37;99127.28;301309;32;3979;-79
2023/06/28 00:54:55;;;;;;;;;;;;;;;24.44;65.26;99129.13;303548;32;1307;-79
2023/06/28 00:55:05;;;;;;;;;;;;;;;24.46;65.11;99132.47;302351;32;5167;-79
2023/06/28 00:55:16;;;;;;;;;;;;;;;24.46;65.17;99128.97;301144;32;6091;-79
2023/06/28 00:55:26;;;;;;;;;;;;;;;24.47;65.17;99127.97;299424;32;917;-79
2023/06/28 00:55:36;;;;;;;;;;;;;;;24.48;65.39;99132.31;296771;32;6990;-79
2023/06/28 00:55:46;;;;;;;;;;;;;;;24.48;65.34;99132.31;295623;33;6802;-79
2023/06/28 00:55:57;;;;;;;;;;;;;;;24.48;64.91;99129.63;296143;33;1255;-79
2023/06/28 00:56:07;;;;;;;;;;;;;;;24.49;65.14;99129.47;294239;33;1304;-79
2023/06/28 00:56:17;;;;;;;;;;;;;;;24.49;65.20;99134.81;293238;33;6151;-79
2023/06/28 00:56:28;;;;;;;;;;;;;;;24.49;65.15;99131.31;291713;33;4671;-79
2023/06/28 00:56:38;;;;;;;;;;;;;;;24.50;65.15;99133.81;287627;34;1261;-80
2023/06/28 00:56:48;;;;;;;;;;;;;;;24.50;65.11;99133.81;286742;33;5148;-79
2023/06/28 00:56:59;;;;;;;;;;;;;;;24.50;65.30;99127.63;287615;33;6137;-79
2023/06/28 00:57:09;;;;;;;;;;;;;;;24.50;65.03;99130.31;293145;33;1342;-79
2023/06/28 00:57:19;;;;;;;;;;;;;;;24.49;64.99;99128.63;288076;33;7272;-79
2023/06/28 00:57:30;;;;;;;;;;;;;;;24.48;65.07;99130.47;287790;33;8487;-79
2023/06/28 00:57:40;;;;;;;;;;;;;;;24.48;64.99;99129.63;291178;34;1151;-79
2023/06/28 00:57:50;;;;;;;;;;;;;;;24.49;65.35;99134.00;290604;33;9242;-79
2023/06/28 00:58:01;;;;;;;;;;;;;;;24.48;65.09;99130.47;290070;33;10356;-79
2023/06/28 00:58:11;;;;;;;;;;;;;;;24.48;64.97;99130.47;287494;34;1303;-79
2023/06/28 01:00:18;;;;;;;;;;;;;;;24.49;65.18;99126.78;2504519;27;19919;-79
2023/06/28 01:00:29;;;;;;;;;;;;;;;24.50;65.42;99124.97;356112;27;1410;-79
2023/06/28 01:00:39;;;;;;;;;;;;;;;24.49;65.17;99123.28;353363;28;1339;-79
2023/06/28 01:00:50;;;;;;;;;;;;;;;24.50;65.25;99124.97;351992;28;740;-79
2023/06/28 01:01:00;;;;;;;;;;;;;;;24.50;65.20;99127.63;350503;28;1294;-79
2023/06/28 01:01:10;;;;;;;;;;;;;;;24.49;65.39;99123.28;351258;28;1574;-79
2023/06/28 01:01:21;;;;;;;;;;;;;;;24.49;65.49;99126.78;351961;28;988;-79
2023/06/28 01:01:31;;;;;;;;;;;;;;;24.50;65.31;99133.81;350704;28;2139;-79
2023/06/28 01:01:42;;;;;;;;;;;;;;;24.49;65.29;99128.63;347941;28;2684;-79
2023/06/28 01:01:53;;;;;;;;;;;;;;;24.49;65.43;99123.28;347652;28;3138;-79
2023/06/28 01:02:03;;;;;;;;;;;;;;;24.49;65.32;99125.97;349240;28;1371;-79
2023/06/28 01:02:14;;;;;;;;;;;;;;;24.49;65.51;99121.44;349951;28;1385;-79